createdAt,value
2018-09-20T00:00:17.192Z,21.50
2018-09-20T00:02:45.544Z,21.50
2018-09-20T00:05:14.223Z,21.40
2018-09-20T00:07:49.178Z,21.40
2018-09-20T00:10:21.453Z,21.30
2018-09-20T00:12:52.082Z,21.30
2018-09-20T00:15:20.644Z,21.30
2018-09-20T00:17:55.509Z,21.20
2018-09-20T00:20:24.276Z,21.20
2018-09-20T00:22:54.598Z,21.10
2018-09-20T00:25:24.333Z,21.10
2018-09-20T00:27:57.720Z,21.10
2018-09-20T00:30:26.484Z,21.00
2018-09-20T00:32:55.372Z,21.10
2018-09-20T00:35:24.223Z,21.00
2018-09-20T00:37:55.350Z,20.90
2018-09-20T00:40:24.867Z,20.90
2018-09-20T00:42:56.275Z,20.80
2018-09-20T00:45:24.758Z,20.80
2018-09-20T00:47:53.725Z,20.80
2018-09-20T00:50:22.269Z,20.70
2018-09-20T00:52:53.436Z,20.70
2018-09-20T00:55:22.454Z,20.60
2018-09-20T00:57:52.504Z,20.60
2018-09-20T01:00:23.387Z,20.60
2018-09-20T01:02:53.173Z,20.50
2018-09-20T01:05:22.000Z,20.50
2018-09-20T01:07:50.381Z,20.40
2018-09-20T01:10:18.957Z,20.40
2018-09-20T01:12:49.101Z,20.40
2018-09-20T01:15:18.297Z,20.50
2018-09-20T01:17:54.521Z,20.50
2018-09-20T01:20:24.053Z,20.40
2018-09-20T01:22:54.985Z,20.30
2018-09-20T01:25:23.717Z,20.30
2018-09-20T01:27:52.529Z,20.30
2018-09-20T01:30:21.387Z,20.30
2018-09-20T01:32:50.182Z,20.20
2018-09-20T01:35:19.218Z,20.20
2018-09-20T01:37:48.996Z,20.10
2018-09-20T01:40:18.679Z,20.10
2018-09-20T01:42:47.315Z,20.10
2018-09-20T01:45:16.468Z,20.00
2018-09-20T01:47:45.277Z,20.00
2018-09-20T01:50:15.632Z,20.00
2018-09-20T01:52:45.612Z,20.00
2018-09-20T01:55:16.735Z,20.00
2018-09-20T01:57:45.046Z,19.90
2018-09-20T02:00:17.385Z,19.90
2018-09-20T02:02:47.445Z,19.90
2018-09-20T02:05:17.582Z,19.90
2018-09-20T02:07:46.717Z,19.90
2018-09-20T02:10:17.276Z,19.90
2018-09-20T02:12:48.131Z,19.80
2018-09-20T02:15:18.096Z,19.80
2018-09-20T02:17:47.318Z,19.80
2018-09-20T02:20:20.676Z,19.70
2018-09-20T02:22:50.084Z,19.70
2018-09-20T02:25:18.710Z,19.70
2018-09-20T02:27:48.537Z,19.70
2018-09-20T02:30:17.393Z,19.70
2018-09-20T02:32:47.734Z,19.70
2018-09-20T02:35:17.617Z,19.70
2018-09-20T02:37:46.528Z,19.70
2018-09-20T02:40:15.361Z,19.70
2018-09-20T02:42:44.317Z,19.60
2018-09-20T02:45:15.656Z,19.60
2018-09-20T02:47:45.717Z,19.60
2018-09-20T02:50:18.572Z,19.50
2018-09-20T02:52:47.573Z,19.50
2018-09-20T02:55:17.499Z,19.50
2018-09-20T02:57:48.175Z,19.50
2018-09-20T03:00:19.990Z,19.50
2018-09-20T03:02:49.445Z,19.40
2018-09-20T03:05:17.959Z,19.40
2018-09-20T03:07:46.815Z,19.40
2018-09-20T03:10:18.097Z,19.30
2018-09-20T03:12:49.712Z,19.30
2018-09-20T03:15:18.064Z,19.20
2018-09-20T03:17:48.371Z,19.20
2018-09-20T03:20:16.631Z,19.20
2018-09-20T03:22:49.703Z,19.20
2018-09-20T03:25:20.183Z,19.10
2018-09-20T03:27:51.421Z,19.10
2018-09-20T03:30:22.689Z,19.10
2018-09-20T03:32:52.345Z,19.10
2018-09-20T03:35:24.073Z,19.00
2018-09-20T03:37:53.979Z,19.00
2018-09-20T03:40:23.633Z,19.00
2018-09-20T03:42:52.944Z,18.90
2018-09-20T03:45:22.338Z,18.90
2018-09-20T03:47:56.748Z,18.90
2018-09-20T03:50:25.449Z,18.90
2018-09-20T03:52:54.381Z,18.90
2018-09-20T03:55:23.167Z,18.90
2018-09-20T03:57:51.815Z,18.90
2018-09-20T04:00:20.379Z,18.80
2018-09-20T04:02:53.795Z,18.80
2018-09-20T04:05:22.355Z,18.80
2018-09-20T04:07:50.949Z,18.80
2018-09-20T04:10:19.672Z,18.80
2018-09-20T04:12:48.112Z,18.80
2018-09-20T04:15:20.218Z,18.70
2018-09-20T04:17:49.374Z,18.70
2018-09-20T04:20:19.436Z,18.70
2018-09-20T04:22:48.224Z,18.60
2018-09-20T04:25:16.594Z,18.60
2018-09-20T04:27:46.305Z,18.60
2018-09-20T04:30:15.213Z,18.50
2018-09-20T04:32:45.027Z,18.60
2018-09-20T04:35:14.358Z,18.70
2018-09-20T04:37:49.507Z,18.90
2018-09-20T04:40:17.839Z,18.90
2018-09-20T04:42:47.824Z,18.90
2018-09-20T04:45:17.523Z,18.80
2018-09-20T04:48:16.378Z,18.70
2018-09-20T04:50:53.643Z,18.70
2018-09-20T04:53:25.247Z,18.60
2018-09-20T04:55:55.087Z,18.60
2018-09-20T04:58:28.623Z,18.50
2018-09-20T05:01:12.179Z,18.50
2018-09-20T05:03:46.124Z,18.50
2018-09-20T05:06:18.403Z,18.50
2018-09-20T05:08:51.465Z,18.50
2018-09-20T05:11:23.668Z,18.50
2018-09-20T05:13:55.112Z,18.50
2018-09-20T05:16:25.355Z,18.60
2018-09-20T05:19:24.440Z,18.60
2018-09-20T05:21:59.251Z,18.60
2018-09-20T05:27:07.894Z,18.70
2018-09-20T05:29:41.857Z,18.80
2018-09-20T05:32:16.829Z,18.80
2018-09-20T05:34:47.286Z,18.90
2018-09-20T05:37:15.973Z,19.00
2018-09-20T05:39:54.182Z,19.10
2018-09-20T05:42:23.357Z,19.20
2018-09-20T05:44:51.989Z,19.30
2018-09-20T05:47:20.445Z,19.40
2018-09-20T05:49:52.061Z,19.50
2018-09-20T05:52:20.669Z,19.60
2018-09-20T05:54:49.973Z,19.70
2018-09-20T05:57:18.262Z,19.80
2018-09-20T05:59:48.833Z,19.90
2018-09-20T06:02:17.285Z,20.00
2018-09-20T06:04:45.695Z,20.00
2018-09-20T06:07:15.146Z,20.10
2018-09-20T06:09:43.716Z,20.10
2018-09-20T06:12:12.930Z,20.20
2018-09-20T06:14:42.648Z,20.40
2018-09-20T06:17:11.372Z,20.50
2018-09-20T06:19:40.366Z,20.70
2018-09-20T06:22:09.212Z,20.90
2018-09-20T06:24:38.784Z,21.00
2018-09-20T07:00:50.208Z,22.10
2018-09-20T07:03:25.410Z,22.80
2018-09-20T07:12:58.705Z,22.80
2018-09-20T07:15:30.463Z,22.80
2018-09-20T07:18:04.487Z,22.80
2018-09-20T07:20:38.767Z,22.80
2018-09-20T07:23:11.485Z,22.90
2018-09-20T07:25:41.655Z,23.10
2018-09-20T07:28:19.839Z,23.10
2018-09-20T07:30:49.311Z,23.30
2018-09-20T07:42:43.860Z,23.60
2018-09-20T07:45:17.957Z,24.20
2018-09-20T07:47:51.409Z,24.40
2018-09-20T07:50:31.408Z,24.50
2018-09-20T07:53:12.597Z,24.50
2018-09-20T07:55:43.857Z,24.60
2018-09-20T08:00:53.516Z,24.70
2018-09-20T08:03:27.502Z,24.70
2018-09-20T08:06:03.298Z,24.80
2018-09-20T08:11:09.855Z,24.90
2018-09-20T08:13:43.308Z,25.00
2018-09-20T08:19:14.084Z,25.20
2018-09-20T08:21:44.985Z,25.20
2018-09-20T08:24:18.013Z,25.20
2018-09-20T08:26:49.768Z,25.20
2018-09-20T08:29:24.700Z,25.40
2018-09-20T08:31:58.540Z,25.50
2018-09-20T08:34:28.944Z,25.50
2018-09-20T08:37:07.218Z,25.80
2018-09-20T08:42:11.956Z,26.20
2018-09-20T08:44:43.077Z,26.50
2018-09-20T08:47:14.242Z,26.60
2018-09-20T08:49:45.422Z,26.70
2018-09-20T08:52:18.768Z,27.10
2018-09-20T08:55:01.442Z,27.00
2018-09-20T08:57:38.726Z,27.10
2018-09-20T09:00:13.253Z,27.20
2018-09-20T09:02:44.024Z,27.40
2018-09-20T09:05:16.077Z,27.60
2018-09-20T09:07:45.180Z,27.70
2018-09-20T09:10:18.161Z,28.70
2018-09-20T09:12:47.461Z,30.60
2018-09-20T09:15:19.403Z,32.60
2018-09-20T09:31:58.253Z,34.20
2018-09-20T09:34:28.959Z,33.70
2018-09-20T09:37:00.973Z,34.10
2018-09-20T09:39:31.685Z,35.30
2018-09-20T09:42:02.949Z,35.50
2018-09-20T09:44:32.525Z,35.00
2018-09-20T09:47:02.361Z,35.50
2018-09-20T09:49:32.047Z,35.50
2018-09-20T09:52:06.948Z,35.90
2018-09-20T09:54:41.188Z,35.60
2018-09-20T09:57:11.982Z,35.00
2018-09-20T09:59:44.563Z,35.70
2018-09-20T10:02:19.255Z,36.60
2018-09-20T10:04:55.469Z,36.70
2018-09-20T10:07:30.690Z,38.10
2018-09-20T10:10:00.132Z,39.50
2018-09-20T10:12:35.900Z,39.30
2018-09-20T10:15:09.702Z,39.30
2018-09-20T10:17:42.216Z,39.30
2018-09-20T10:20:11.422Z,38.60
2018-09-20T10:22:45.176Z,38.00
2018-09-20T10:25:17.730Z,38.30
2018-09-20T10:27:49.308Z,38.00
2018-09-20T10:43:39.337Z,38.20
2018-09-20T10:46:13.090Z,37.50
2018-09-20T10:48:47.966Z,36.40
2018-09-20T10:51:29.271Z,36.10
2018-09-20T10:54:06.599Z,34.30
2018-09-20T10:56:48.151Z,33.40
2018-09-20T10:59:24.136Z,33.10
2018-09-20T11:01:59.814Z,32.70
2018-09-20T11:04:38.969Z,32.40
2018-09-20T11:07:10.565Z,32.80
2018-09-20T11:12:21.356Z,35.80
2018-09-20T11:15:00.777Z,37.90
2018-09-20T11:17:34.175Z,39.30
2018-09-20T11:20:06.669Z,40.10
2018-09-20T11:22:41.611Z,40.70
2018-09-20T11:25:14.845Z,41.70
2018-09-20T11:27:45.717Z,40.40
2018-09-20T11:30:25.590Z,39.90
2018-09-20T11:32:58.894Z,40.60
2018-09-20T11:35:29.628Z,39.10
2018-09-20T11:38:00.898Z,38.50
2018-09-20T11:40:40.367Z,38.00
2018-09-20T11:43:11.455Z,38.60
2018-09-20T11:45:42.681Z,38.30
2018-09-20T11:48:17.874Z,37.30
2018-09-20T11:50:54.258Z,37.50
2018-09-20T11:53:29.861Z,37.40
2018-09-20T11:56:06.002Z,36.80
2018-09-20T11:58:35.036Z,36.30
2018-09-20T12:01:09.001Z,35.60
2018-09-20T12:03:45.753Z,35.30
2018-09-20T12:06:18.958Z,35.60
2018-09-20T12:08:51.553Z,35.70
2018-09-20T12:11:25.232Z,35.30
2018-09-20T12:14:00.978Z,34.60
2018-09-20T12:16:29.974Z,34.60
2018-09-20T12:19:02.003Z,34.80
2018-09-20T12:24:07.730Z,35.40
2018-09-20T12:26:40.121Z,36.50
2018-09-20T12:29:14.328Z,37.60
2018-09-20T12:31:48.472Z,38.00
2018-09-20T12:34:19.281Z,37.00
2018-09-20T12:36:52.365Z,36.30
2018-09-20T12:39:23.992Z,35.60
2018-09-20T12:45:02.463Z,36.40
2018-09-20T12:49:16.952Z,38.90
2018-09-20T12:51:48.360Z,40.40
2018-09-20T12:54:22.171Z,40.10
2018-09-20T12:56:56.216Z,40.10
2018-09-20T12:59:27.470Z,41.20
2018-09-20T13:21:46.105Z,42.30
2018-09-20T13:24:17.431Z,36.80
2018-09-20T13:26:48.109Z,37.90
2018-09-20T13:29:20.984Z,39.60
2018-09-20T13:31:51.433Z,40.20
2018-09-20T13:34:23.195Z,41.30
2018-09-20T13:37:05.314Z,42.00
2018-09-20T13:39:38.386Z,41.10
2018-09-20T13:42:08.828Z,39.80
2018-09-20T13:44:48.282Z,40.50
2018-09-20T13:47:19.149Z,40.30
2018-09-20T13:49:54.500Z,39.20
2018-09-20T13:52:30.733Z,39.30
2018-09-20T13:55:02.527Z,39.40
2018-09-20T14:04:01.045Z,35.70
2018-09-20T14:06:37.321Z,35.20
2018-09-20T14:09:13.085Z,36.60
2018-09-20T14:11:45.426Z,38.20
2018-09-20T14:14:23.610Z,39.30
2018-09-20T14:16:53.889Z,39.90
2018-09-20T14:19:30.585Z,40.70
2018-09-20T14:22:47.614Z,40.80
2018-09-20T14:26:59.291Z,40.40
2018-09-20T14:29:56.947Z,39.40
2018-09-20T14:59:38.372Z,38.30
2018-09-20T15:02:13.159Z,34.20
2018-09-20T15:04:51.511Z,33.50
2018-09-20T15:07:23.284Z,33.10
2018-09-20T15:09:56.990Z,32.80
2018-09-20T15:12:31.028Z,32.40
2018-09-20T15:15:03.680Z,32.10
2018-09-20T15:17:47.485Z,31.90
2018-09-20T15:20:26.174Z,31.80
2018-09-20T15:23:02.038Z,31.70
2018-09-20T15:28:28.066Z,31.40
2018-09-20T15:31:05.785Z,31.30
2018-09-20T15:33:41.536Z,31.20
2018-09-20T15:36:15.361Z,31.10
2018-09-20T15:38:49.621Z,30.90
2018-09-20T15:41:26.626Z,30.80
2018-09-20T15:44:05.266Z,30.70
2018-09-20T15:47:03.581Z,30.60
2018-09-20T15:52:23.480Z,30.40
2018-09-20T15:54:58.332Z,30.40
2018-09-20T15:57:34.503Z,30.30
2018-09-20T16:00:06.625Z,30.20
2018-09-20T16:02:37.210Z,30.20
2018-09-20T16:05:12.225Z,30.10
2018-09-20T16:07:45.263Z,30.10
2018-09-20T16:10:21.170Z,30.00
2018-09-20T16:12:57.001Z,29.90
2018-09-20T16:15:36.240Z,29.90
2018-09-20T16:18:07.716Z,29.80
2018-09-20T16:20:51.464Z,29.70
2018-09-20T16:23:33.880Z,29.60
2018-09-20T16:29:27.545Z,29.50
2018-09-20T16:32:32.227Z,29.40
2018-09-20T16:35:49.405Z,29.20
2018-09-20T16:39:41.129Z,29.10
2018-09-20T16:42:33.981Z,28.90
2018-09-20T16:45:28.811Z,28.60
2018-09-20T16:48:04.057Z,28.50
2018-09-20T16:50:54.041Z,28.20
2018-09-20T16:53:33.548Z,28.10
2018-09-20T16:56:09.535Z,27.90
2018-09-20T16:58:48.254Z,27.80
2018-09-20T17:01:25.995Z,27.60
2018-09-20T17:06:45.147Z,27.40
2018-09-20T17:09:25.125Z,27.30
2018-09-20T17:15:51.267Z,27.00
2018-09-20T17:18:39.683Z,26.80
2018-09-20T17:21:14.533Z,26.80
2018-09-20T17:23:56.386Z,26.60
2018-09-20T17:26:29.401Z,26.50
2018-09-20T17:29:04.395Z,26.40
2018-09-20T17:34:33.133Z,26.10
2018-09-20T17:37:34.368Z,26.00
2018-09-20T17:40:25.594Z,25.90
2018-09-20T17:43:07.192Z,25.80
2018-09-20T17:45:42.584Z,25.80
2018-09-20T17:48:18.732Z,26.00
2018-09-20T17:50:59.886Z,26.10
2018-09-20T17:54:03.848Z,26.30
2018-09-20T17:56:42.717Z,26.40
2018-09-20T17:59:25.270Z,26.40
2018-09-20T18:08:19.262Z,26.10
2018-09-20T18:13:35.744Z,25.70
2018-09-20T18:16:14.296Z,25.50
2018-09-20T18:18:57.555Z,25.40
2018-09-20T18:21:34.175Z,25.30
2018-09-20T18:24:22.378Z,25.10
2018-09-20T18:27:04.244Z,25.00
2018-09-20T18:30:49.348Z,24.90
2018-09-20T18:33:23.479Z,24.70
2018-09-20T18:35:55.094Z,24.60
2018-09-20T18:38:29.201Z,24.60
2018-09-20T18:43:46.353Z,24.50
2018-09-20T18:48:27.408Z,24.40
2018-09-20T18:51:08.379Z,24.30
2018-09-20T18:53:44.896Z,24.20
2018-09-20T18:56:22.635Z,24.10
2018-09-20T18:59:03.243Z,24.10
2018-09-20T19:25:42.115Z,23.90
2018-09-20T19:31:42.971Z,23.30
2018-09-20T19:34:26.450Z,23.30
2018-09-20T19:37:07.813Z,23.40
2018-09-20T19:56:52.511Z,23.30
2018-09-20T19:59:25.363Z,23.00
2018-09-20T20:02:03.375Z,22.80
2018-09-20T20:04:53.254Z,22.80
2018-09-20T20:07:30.223Z,22.70
2018-09-20T20:10:08.851Z,22.60
2018-09-20T20:13:12.894Z,22.50
2018-09-20T20:15:50.619Z,22.50
2018-09-20T20:21:23.755Z,22.40
2018-09-20T20:24:00.755Z,22.30
2018-09-20T20:26:45.544Z,22.40
2018-09-20T20:29:21.932Z,22.30
2018-09-20T20:34:53.548Z,22.10
2018-09-20T20:58:29.188Z,22.20
2018-09-20T21:00:57.839Z,21.90
2018-09-20T21:03:26.492Z,22.00
2018-09-20T21:05:55.123Z,22.00
2018-09-20T21:08:26.365Z,22.00
2018-09-20T21:10:59.324Z,22.00
2018-09-20T21:16:12.148Z,22.00
2018-09-20T21:18:42.407Z,22.00
2018-09-20T21:21:10.682Z,21.90
2018-09-20T21:23:44.685Z,21.90
2018-09-20T21:26:15.863Z,21.90
2018-09-20T21:28:50.659Z,21.80
2018-09-20T21:31:24.779Z,21.80
2018-09-20T21:33:53.315Z,21.80
2018-09-20T21:36:21.983Z,22.10
2018-09-20T21:38:50.306Z,22.40
2018-09-20T21:41:19.103Z,22.50
2018-09-20T21:43:47.931Z,22.50
2018-09-20T21:46:16.263Z,22.50
2018-09-20T21:48:44.495Z,22.50
2018-09-20T21:51:13.242Z,22.50
2018-09-20T21:53:42.386Z,22.50
2018-09-20T21:56:10.611Z,22.50
2018-09-20T21:58:38.739Z,22.50
2018-09-20T22:01:12.099Z,22.40
2018-09-20T22:03:40.241Z,22.40
2018-09-20T22:06:08.488Z,22.40
2018-09-20T22:08:36.593Z,22.40
2018-09-20T22:11:04.997Z,22.40
2018-09-20T22:13:33.225Z,22.30
2018-09-20T22:16:01.493Z,22.40
2018-09-20T22:18:29.809Z,22.40
2018-09-20T22:20:58.031Z,22.40
2018-09-20T22:23:26.325Z,22.40
2018-09-20T22:25:57.826Z,22.40
2018-09-20T22:28:26.834Z,22.30
2018-09-20T22:30:55.490Z,22.30
2018-09-20T22:33:25.966Z,22.20
2018-09-20T22:35:55.958Z,22.10
2018-09-20T22:38:25.769Z,22.20
2018-09-20T22:40:57.552Z,22.10
2018-09-20T22:43:34.980Z,22.20
2018-09-20T22:46:05.132Z,22.10
2018-09-20T22:48:36.600Z,22.10
2018-09-20T22:51:06.171Z,22.10
2018-09-20T22:53:36.676Z,22.10
2018-09-20T22:58:24.096Z,22.10
2018-09-20T23:00:53.224Z,22.10
2018-09-20T23:03:25.336Z,22.10
2018-09-20T23:05:55.626Z,22.00
2018-09-20T23:08:28.500Z,22.00
2018-09-20T23:10:58.454Z,22.00
2018-09-20T23:13:32.157Z,22.00
2018-09-20T23:16:03.182Z,22.00
2018-09-20T23:18:37.544Z,21.90
2018-09-20T23:21:10.512Z,21.90
2018-09-20T23:23:40.041Z,21.90
2018-09-20T23:26:14.008Z,21.90
2018-09-20T23:28:45.933Z,21.80
2018-09-20T23:31:15.348Z,21.80
2018-09-20T23:33:44.765Z,21.80
2018-09-20T23:36:19.165Z,21.80
2018-09-20T23:38:48.625Z,21.80
2018-09-20T23:41:17.993Z,21.80
2018-09-20T23:43:50.646Z,21.80
2018-09-20T23:46:19.572Z,21.80
2018-09-20T23:48:50.068Z,21.80
2018-09-20T23:51:20.955Z,21.70
2018-09-20T23:53:51.585Z,21.70
2018-09-20T23:56:22.981Z,21.60
2018-09-20T23:58:51.931Z,21.50
